sensor_id;sensor_type;location;lat;lon;timestamp;pressure;altitude;pressure_sealevel;temperature
41940;BMP180;23057;48.554;14.454;2023-10-19T00:02:13;92524.00;;;12.10
41940;BMP180;23057;48.554;14.454;2023-10-19T00:04:45;92526.00;;;12.10
41940;BMP180;23057;48.554;14.454;2023-10-19T00:07:16;92522.00;;;12.20
41940;BMP180;23057;48.554;14.454;2023-10-19T00:09:47;92527.00;;;12.20
41940;BMP180;23057;48.554;14.454;2023-10-19T00:12:23;92538.00;;;12.20
41940;BMP180;23057;48.554;14.454;2023-10-19T00:14:54;92537.00;;;12.20
41940;BMP180;23057;48.554;14.454;2023-10-19T00:17:24;92514.00;;;12.10
41940;BMP180;23057;48.554;14.454;2023-10-19T00:19:57;92521.00;;;12.10
41940;BMP180;23057;48.554;14.454;2023-10-19T00:22:40;92516.00;;;12.10
41940;BMP180;23057;48.554;14.454;2023-10-19T00:25:11;92514.00;;;12.10
41940;BMP180;23057;48.554;14.454;2023-10-19T00:27:43;92518.00;;;12.10
41940;BMP180;23057;48.554;14.454;2023-10-19T00:30:18;92515.00;;;12.10
41940;BMP180;23057;48.554;14.454;2023-10-19T00:32:54;92505.00;;;12.10
41940;BMP180;23057;48.554;14.454;2023-10-19T00:35:25;92500.00;;;12.20
41940;BMP180;23057;48.554;14.454;2023-10-19T00:38:04;92494.00;;;12.20
41940;BMP180;23057;48.554;14.454;2023-10-19T00:40:54;92496.00;;;12.30
41940;BMP180;23057;48.554;14.454;2023-10-19T00:43:43;92478.00;;;12.30
41940;BMP180;23057;48.554;14.454;2023-10-19T00:46:16;92472.00;;;12.30
41940;BMP180;23057;48.554;14.454;2023-10-19T00:48:57;92469.00;;;12.40
41940;BMP180;23057;48.554;14.454;2023-10-19T00:51:37;92468.00;;;12.40
41940;BMP180;23057;48.554;14.454;2023-10-19T00:54:36;92466.00;;;12.40
41940;BMP180;23057;48.554;14.454;2023-10-19T00:57:21;92460.00;;;12.40
41940;BMP180;23057;48.554;14.454;2023-10-19T01:00:03;92463.00;;;12.50
41940;BMP180;23057;48.554;14.454;2023-10-19T01:02:44;92462.00;;;12.60
41940;BMP180;23057;48.554;14.454;2023-10-19T01:05:16;92455.00;;;12.60
41940;BMP180;23057;48.554;14.454;2023-10-19T01:07:52;92447.00;;;12.60
41940;BMP180;23057;48.554;14.454;2023-10-19T01:10:32;92445.00;;;12.70
41940;BMP180;23057;48.554;14.454;2023-10-19T01:13:03;92434.00;;;12.70
41940;BMP180;23057;48.554;14.454;2023-10-19T01:15:36;92437.00;;;12.70
41940;BMP180;23057;48.554;14.454;2023-10-19T01:18:07;92445.00;;;12.70
41940;BMP180;23057;48.554;14.454;2023-10-19T01:20:41;92449.00;;;12.70
41940;BMP180;23057;48.554;14.454;2023-10-19T01:23:25;92438.00;;;12.70
41940;BMP180;23057;48.554;14.454;2023-10-19T01:25:59;92428.00;;;12.80
41940;BMP180;23057;48.554;14.454;2023-10-19T01:28:34;92427.00;;;12.80
41940;BMP180;23057;48.554;14.454;2023-10-19T01:31:19;92434.00;;;12.70
41940;BMP180;23057;48.554;14.454;2023-10-19T01:34:01;92423.00;;;12.70
41940;BMP180;23057;48.554;14.454;2023-10-19T01:36:35;92424.00;;;12.70
41940;BMP180;23057;48.554;14.454;2023-10-19T01:39:16;92417.00;;;12.70
41940;BMP180;23057;48.554;14.454;2023-10-19T01:41:49;92420.00;;;12.70
41940;BMP180;23057;48.554;14.454;2023-10-19T01:44:21;92411.00;;;12.70
41940;BMP180;23057;48.554;14.454;2023-10-19T01:46:52;92412.00;;;12.70
41940;BMP180;23057;48.554;14.454;2023-10-19T01:49:23;92395.00;;;12.70
41940;BMP180;23057;48.554;14.454;2023-10-19T01:51:56;92396.00;;;12.80
41940;BMP180;23057;48.554;14.454;2023-10-19T01:54:27;92397.00;;;12.80
41940;BMP180;23057;48.554;14.454;2023-10-19T01:56:58;92390.00;;;12.80
41940;BMP180;23057;48.554;14.454;2023-10-19T01:59:29;92390.00;;;12.70
41940;BMP180;23057;48.554;14.454;2023-10-19T02:02:01;92393.00;;;12.70
41940;BMP180;23057;48.554;14.454;2023-10-19T02:04:33;92385.00;;;12.70
41940;BMP180;23057;48.554;14.454;2023-10-19T02:07:07;92387.00;;;12.70
41940;BMP180;23057;48.554;14.454;2023-10-19T02:09:43;92397.00;;;12.60
41940;BMP180;23057;48.554;14.454;2023-10-19T02:12:14;92384.00;;;12.60
41940;BMP180;23057;48.554;14.454;2023-10-19T02:14:44;92390.00;;;12.70
41940;BMP180;23057;48.554;14.454;2023-10-19T02:17:16;92390.00;;;12.70
41940;BMP180;23057;48.554;14.454;2023-10-19T02:19:47;92386.00;;;12.70
41940;BMP180;23057;48.554;14.454;2023-10-19T02:22:18;92394.00;;;12.70
41940;BMP180;23057;48.554;14.454;2023-10-19T02:24:49;92374.00;;;12.70
41940;BMP180;23057;48.554;14.454;2023-10-19T02:27:20;92369.00;;;12.80
41940;BMP180;23057;48.554;14.454;2023-10-19T02:29:52;92369.00;;;12.80
41940;BMP180;23057;48.554;14.454;2023-10-19T02:32:23;92364.00;;;12.80
41940;BMP180;23057;48.554;14.454;2023-10-19T02:34:54;92346.00;;;12.60
41940;BMP180;23057;48.554;14.454;2023-10-19T02:37:27;92349.00;;;12.50
41940;BMP180;23057;48.554;14.454;2023-10-19T02:39:58;92350.00;;;12.50
41940;BMP180;23057;48.554;14.454;2023-10-19T02:42:31;92345.00;;;12.50
41940;BMP180;23057;48.554;14.454;2023-10-19T02:45:02;92351.00;;;12.50
41940;BMP180;23057;48.554;14.454;2023-10-19T02:47:35;92349.00;;;12.50
41940;BMP180;23057;48.554;14.454;2023-10-19T02:50:07;92347.00;;;12.40
41940;BMP180;23057;48.554;14.454;2023-10-19T02:52:44;92340.00;;;12.40
41940;BMP180;23057;48.554;14.454;2023-10-19T02:55:14;92347.00;;;12.40
41940;BMP180;23057;48.554;14.454;2023-10-19T02:57:49;92344.00;;;12.40
41940;BMP180;23057;48.554;14.454;2023-10-19T03:00:21;92339.00;;;12.40
41940;BMP180;23057;48.554;14.454;2023-10-19T03:02:52;92330.00;;;12.40
41940;BMP180;23057;48.554;14.454;2023-10-19T03:05:23;92326.00;;;12.40
41940;BMP180;23057;48.554;14.454;2023-10-19T03:07:56;92320.00;;;12.40
41940;BMP180;23057;48.554;14.454;2023-10-19T03:10:26;92321.00;;;12.30
41940;BMP180;23057;48.554;14.454;2023-10-19T03:13:12;92323.00;;;12.20
41940;BMP180;23057;48.554;14.454;2023-10-19T03:15:45;92324.00;;;12.20
41940;BMP180;23057;48.554;14.454;2023-10-19T03:18:16;92315.00;;;12.20
41940;BMP180;23057;48.554;14.454;2023-10-19T03:20:47;92312.00;;;12.20
41940;BMP180;23057;48.554;14.454;2023-10-19T03:23:21;92305.00;;;12.30
41940;BMP180;23057;48.554;14.454;2023-10-19T03:25:56;92309.00;;;12.30
41940;BMP180;23057;48.554;14.454;2023-10-19T03:28:45;92312.00;;;12.20
41940;BMP180;23057;48.554;14.454;2023-10-19T03:31:16;92304.00;;;12.20
41940;BMP180;23057;48.554;14.454;2023-10-19T03:33:52;92294.00;;;12.20
41940;BMP180;23057;48.554;14.454;2023-10-19T03:36:27;92294.00;;;12.20
41940;BMP180;23057;48.554;14.454;2023-10-19T03:38:58;92306.00;;;12.10
41940;BMP180;23057;48.554;14.454;2023-10-19T03:41:41;92317.00;;;11.90
41940;BMP180;23057;48.554;14.454;2023-10-19T03:44:16;92312.00;;;11.90
41940;BMP180;23057;48.554;14.454;2023-10-19T03:46:55;92308.00;;;11.80
41940;BMP180;23057;48.554;14.454;2023-10-19T03:49:35;92299.00;;;11.70
41940;BMP180;23057;48.554;14.454;2023-10-19T03:52:08;92310.00;;;11.80
41940;BMP180;23057;48.554;14.454;2023-10-19T03:54:40;92295.00;;;11.70
41940;BMP180;23057;48.554;14.454;2023-10-19T03:57:14;92289.00;;;11.70
41940;BMP180;23057;48.554;14.454;2023-10-19T03:59:50;92289.00;;;11.60
41940;BMP180;23057;48.554;14.454;2023-10-19T04:02:27;92286.00;;;11.50
41940;BMP180;23057;48.554;14.454;2023-10-19T04:05:00;92281.00;;;11.40
41940;BMP180;23057;48.554;14.454;2023-10-19T04:07:32;92275.00;;;11.50
41940;BMP180;23057;48.554;14.454;2023-10-19T04:10:03;92278.00;;;11.50
41940;BMP180;23057;48.554;14.454;2023-10-19T04:12:40;92277.00;;;11.60
41940;BMP180;23057;48.554;14.454;2023-10-19T04:15:12;92279.00;;;11.50
41940;BMP180;23057;48.554;14.454;2023-10-19T04:17:48;92280.00;;;11.50
41940;BMP180;23057;48.554;14.454;2023-10-19T04:20:19;92275.00;;;11.60
41940;BMP180;23057;48.554;14.454;2023-10-19T04:22:50;92268.00;;;11.60
41940;BMP180;23057;48.554;14.454;2023-10-19T04:25:21;92254.00;;;11.60
41940;BMP180;23057;48.554;14.454;2023-10-19T04:27:59;92260.00;;;11.60
41940;BMP180;23057;48.554;14.454;2023-10-19T04:30:31;92257.00;;;11.70
41940;BMP180;23057;48.554;14.454;2023-10-19T04:33:04;92252.00;;;11.70
41940;BMP180;23057;48.554;14.454;2023-10-19T04:35:39;92258.00;;;11.70
41940;BMP180;23057;48.554;14.454;2023-10-19T04:38:11;92248.00;;;11.80
41940;BMP180;23057;48.554;14.454;2023-10-19T04:40:42;92237.00;;;11.70
41940;BMP180;23057;48.554;14.454;2023-10-19T04:43:13;92247.00;;;11.70
41940;BMP180;23057;48.554;14.454;2023-10-19T04:45:44;92241.00;;;11.60
41940;BMP180;23057;48.554;14.454;2023-10-19T04:48:15;92234.00;;;11.50
41940;BMP180;23057;48.554;14.454;2023-10-19T04:50:46;92233.00;;;11.50
41940;BMP180;23057;48.554;14.454;2023-10-19T04:53:17;92223.00;;;11.50
41940;BMP180;23057;48.554;14.454;2023-10-19T04:55:47;92214.00;;;11.40
41940;BMP180;23057;48.554;14.454;2023-10-19T04:58:18;92221.00;;;11.40
41940;BMP180;23057;48.554;14.454;2023-10-19T05:00:49;92222.00;;;11.30
41940;BMP180;23057;48.554;14.454;2023-10-19T05:03:20;92220.00;;;11.20
41940;BMP180;23057;48.554;14.454;2023-10-19T05:05:51;92220.00;;;11.20
41940;BMP180;23057;48.554;14.454;2023-10-19T05:08:24;92216.00;;;11.10
41940;BMP180;23057;48.554;14.454;2023-10-19T05:10:56;92228.00;;;11.10
41940;BMP180;23057;48.554;14.454;2023-10-19T05:13:31;92222.00;;;11.00
41940;BMP180;23057;48.554;14.454;2023-10-19T05:16:03;92228.00;;;11.00
41940;BMP180;23057;48.554;14.454;2023-10-19T05:18:34;92230.00;;;11.00
41940;BMP180;23057;48.554;14.454;2023-10-19T05:21:05;92227.00;;;11.10
41940;BMP180;23057;48.554;14.454;2023-10-19T05:23:36;92226.00;;;11.10
41940;BMP180;23057;48.554;14.454;2023-10-19T05:26:06;92230.00;;;11.20
41940;BMP180;23057;48.554;14.454;2023-10-19T05:28:37;92223.00;;;11.20
41940;BMP180;23057;48.554;14.454;2023-10-19T05:31:08;92221.00;;;11.20
41940;BMP180;23057;48.554;14.454;2023-10-19T05:33:39;92228.00;;;11.20
41940;BMP180;23057;48.554;14.454;2023-10-19T05:36:10;92232.00;;;11.20
41940;BMP180;23057;48.554;14.454;2023-10-19T05:38:41;92235.00;;;11.30
41940;BMP180;23057;48.554;14.454;2023-10-19T05:41:12;92235.00;;;11.30
41940;BMP180;23057;48.554;14.454;2023-10-19T05:43:42;92237.00;;;11.40
41940;BMP180;23057;48.554;14.454;2023-10-19T05:46:13;92233.00;;;11.50
41940;BMP180;23057;48.554;14.454;2023-10-19T05:48:48;92240.00;;;11.60
41940;BMP180;23057;48.554;14.454;2023-10-19T05:51:20;92243.00;;;11.80
41940;BMP180;23057;48.554;14.454;2023-10-19T05:53:52;92235.00;;;11.90
41940;BMP180;23057;48.554;14.454;2023-10-19T05:56:24;92239.00;;;12.00
41940;BMP180;23057;48.554;14.454;2023-10-19T05:58:55;92244.00;;;12.10
41940;BMP180;23057;48.554;14.454;2023-10-19T06:01:26;92242.00;;;12.10
41940;BMP180;23057;48.554;14.454;2023-10-19T06:03:57;92238.00;;;12.20
41940;BMP180;23057;48.554;14.454;2023-10-19T06:06:28;92246.00;;;12.30
41940;BMP180;23057;48.554;14.454;2023-10-19T06:08:59;92242.00;;;12.30
41940;BMP180;23057;48.554;14.454;2023-10-19T06:11:31;92241.00;;;12.30
41940;BMP180;23057;48.554;14.454;2023-10-19T06:14:05;92240.00;;;12.40
41940;BMP180;23057;48.554;14.454;2023-10-19T06:16:37;92238.00;;;12.50
41940;BMP180;23057;48.554;14.454;2023-10-19T06:19:08;92237.00;;;12.60
41940;BMP180;23057;48.554;14.454;2023-10-19T06:21:39;92237.00;;;12.70
41940;BMP180;23057;48.554;14.454;2023-10-19T06:24:10;92245.00;;;12.80
41940;BMP180;23057;48.554;14.454;2023-10-19T06:26:45;92243.00;;;12.90
41940;BMP180;23057;48.554;14.454;2023-10-19T06:29:15;92244.00;;;13.00
41940;BMP180;23057;48.554;14.454;2023-10-19T06:31:46;92246.00;;;13.10
41940;BMP180;23057;48.554;14.454;2023-10-19T06:34:17;92240.00;;;13.20
41940;BMP180;23057;48.554;14.454;2023-10-19T06:36:49;92242.00;;;13.30
41940;BMP180;23057;48.554;14.454;2023-10-19T06:39:21;92235.00;;;13.40
41940;BMP180;23057;48.554;14.454;2023-10-19T06:41:52;92241.00;;;13.50
41940;BMP180;23057;48.554;14.454;2023-10-19T06:44:23;92233.00;;;13.50
41940;BMP180;23057;48.554;14.454;2023-10-19T06:46:54;92222.00;;;13.60
41940;BMP180;23057;48.554;14.454;2023-10-19T06:49:25;92223.00;;;13.60
41940;BMP180;23057;48.554;14.454;2023-10-19T06:51:56;92226.00;;;13.60
41940;BMP180;23057;48.554;14.454;2023-10-19T06:54:27;92226.00;;;13.70
41940;BMP180;23057;48.554;14.454;2023-10-19T06:56:59;92218.00;;;13.80
41940;BMP180;23057;48.554;14.454;2023-10-19T06:59:36;92223.00;;;13.90
41940;BMP180;23057;48.554;14.454;2023-10-19T07:02:07;92221.00;;;14.00
41940;BMP180;23057;48.554;14.454;2023-10-19T07:04:38;92213.00;;;14.00
41940;BMP180;23057;48.554;14.454;2023-10-19T07:07:09;92211.00;;;14.10
41940;BMP180;23057;48.554;14.454;2023-10-19T07:09:40;92217.00;;;14.30
41940;BMP180;23057;48.554;14.454;2023-10-19T07:12:11;92222.00;;;14.40
41940;BMP180;23057;48.554;14.454;2023-10-19T07:14:42;92221.00;;;14.60
41940;BMP180;23057;48.554;14.454;2023-10-19T07:17:13;92229.00;;;14.80
41940;BMP180;23057;48.554;14.454;2023-10-19T07:19:44;92220.00;;;14.90
41940;BMP180;23057;48.554;14.454;2023-10-19T07:22:15;92225.00;;;15.00
41940;BMP180;23057;48.554;14.454;2023-10-19T07:24:47;92218.00;;;15.10
41940;BMP180;23057;48.554;14.454;2023-10-19T07:27:18;92210.00;;;15.30
41940;BMP180;23057;48.554;14.454;2023-10-19T07:29:49;92218.00;;;15.40
41940;BMP180;23057;48.554;14.454;2023-10-19T07:32:20;92217.00;;;15.60
41940;BMP180;23057;48.554;14.454;2023-10-19T07:34:51;92220.00;;;15.70
41940;BMP180;23057;48.554;14.454;2023-10-19T07:37:22;92212.00;;;15.70
41940;BMP180;23057;48.554;14.454;2023-10-19T07:39:53;92216.00;;;15.80
41940;BMP180;23057;48.554;14.454;2023-10-19T07:42:27;92220.00;;;15.80
41940;BMP180;23057;48.554;14.454;2023-10-19T07:44:58;92225.00;;;16.00
41940;BMP180;23057;48.554;14.454;2023-10-19T07:47:30;92228.00;;;16.10
41940;BMP180;23057;48.554;14.454;2023-10-19T07:50:03;92225.00;;;16.20
41940;BMP180;23057;48.554;14.454;2023-10-19T07:52:34;92222.00;;;16.40
41940;BMP180;23057;48.554;14.454;2023-10-19T07:55:06;92226.00;;;16.50
41940;BMP180;23057;48.554;14.454;2023-10-19T07:57:38;92232.00;;;16.60
41940;BMP180;23057;48.554;14.454;2023-10-19T08:00:12;92237.00;;;16.60
41940;BMP180;23057;48.554;14.454;2023-10-19T08:02:47;92233.00;;;16.60
41940;BMP180;23057;48.554;14.454;2023-10-19T08:05:18;92239.00;;;16.70
41940;BMP180;23057;48.554;14.454;2023-10-19T08:07:50;92233.00;;;16.70
41940;BMP180;23057;48.554;14.454;2023-10-19T08:10:21;92230.00;;;16.80
41940;BMP180;23057;48.554;14.454;2023-10-19T08:12:52;92228.00;;;16.80
41940;BMP180;23057;48.554;14.454;2023-10-19T08:15:23;92226.00;;;16.80
41940;BMP180;23057;48.554;14.454;2023-10-19T08:17:53;92221.00;;;16.80
41940;BMP180;23057;48.554;14.454;2023-10-19T08:20:25;92212.00;;;16.90
41940;BMP180;23057;48.554;14.454;2023-10-19T08:23:02;92224.00;;;16.90
41940;BMP180;23057;48.554;14.454;2023-10-19T08:25:33;92225.00;;;17.00
41940;BMP180;23057;48.554;14.454;2023-10-19T08:28:04;92221.00;;;17.10
41940;BMP180;23057;48.554;14.454;2023-10-19T08:30:37;92217.00;;;17.20
41940;BMP180;23057;48.554;14.454;2023-10-19T08:33:08;92205.00;;;17.20
41940;BMP180;23057;48.554;14.454;2023-10-19T08:35:38;92220.00;;;17.30
41940;BMP180;23057;48.554;14.454;2023-10-19T08:38:09;92222.00;;;17.40
41940;BMP180;23057;48.554;14.454;2023-10-19T08:40:43;92215.00;;;17.50
41940;BMP180;23057;48.554;14.454;2023-10-19T08:43:14;92222.00;;;17.50
41940;BMP180;23057;48.554;14.454;2023-10-19T08:45:48;92214.00;;;17.60
41940;BMP180;23057;48.554;14.454;2023-10-19T08:48:19;92210.00;;;17.70
41940;BMP180;23057;48.554;14.454;2023-10-19T08:50:52;92208.00;;;17.80
41940;BMP180;23057;48.554;14.454;2023-10-19T08:53:24;92212.00;;;17.90
41940;BMP180;23057;48.554;14.454;2023-10-19T08:55:56;92218.00;;;18.00
41940;BMP180;23057;48.554;14.454;2023-10-19T08:58:28;92212.00;;;18.00
41940;BMP180;23057;48.554;14.454;2023-10-19T09:00:58;92209.00;;;18.10
41940;BMP180;23057;48.554;14.454;2023-10-19T09:03:36;92211.00;;;18.10
41940;BMP180;23057;48.554;14.454;2023-10-19T09:06:12;92218.00;;;18.20
41940;BMP180;23057;48.554;14.454;2023-10-19T09:08:43;92210.00;;;18.30
41940;BMP180;23057;48.554;14.454;2023-10-19T09:11:18;92206.00;;;18.40
41940;BMP180;23057;48.554;14.454;2023-10-19T09:13:52;92211.00;;;18.40
41940;BMP180;23057;48.554;14.454;2023-10-19T09:16:23;92205.00;;;18.50
41940;BMP180;23057;48.554;14.454;2023-10-19T09:18:54;92208.00;;;18.60
41940;BMP180;23057;48.554;14.454;2023-10-19T09:21:26;92197.00;;;18.70
41940;BMP180;23057;48.554;14.454;2023-10-19T09:23:58;92202.00;;;18.80
41940;BMP180;23057;48.554;14.454;2023-10-19T09:26:30;92203.00;;;18.80
41940;BMP180;23057;48.554;14.454;2023-10-19T09:29:01;92196.00;;;18.80
41940;BMP180;23057;48.554;14.454;2023-10-19T09:31:32;92208.00;;;18.90
41940;BMP180;23057;48.554;14.454;2023-10-19T09:34:03;92204.00;;;18.90
41940;BMP180;23057;48.554;14.454;2023-10-19T09:36:37;92205.00;;;18.90
41940;BMP180;23057;48.554;14.454;2023-10-19T09:39:08;92204.00;;;18.90
41940;BMP180;23057;48.554;14.454;2023-10-19T09:41:44;92209.00;;;19.00
41940;BMP180;23057;48.554;14.454;2023-10-19T09:44:18;92202.00;;;19.00
41940;BMP180;23057;48.554;14.454;2023-10-19T09:46:58;92208.00;;;19.00
41940;BMP180;23057;48.554;14.454;2023-10-19T09:49:34;92206.00;;;19.10
41940;BMP180;23057;48.554;14.454;2023-10-19T09:52:05;92206.00;;;19.10
41940;BMP180;23057;48.554;14.454;2023-10-19T09:54:59;92209.00;;;19.10
41940;BMP180;23057;48.554;14.454;2023-10-19T09:57:50;92207.00;;;19.20
41940;BMP180;23057;48.554;14.454;2023-10-19T10:00:26;92199.00;;;19.30
41940;BMP180;23057;48.554;14.454;2023-10-19T10:03:02;92201.00;;;19.40
41940;BMP180;23057;48.554;14.454;2023-10-19T10:10:50;92198.00;;;19.50
41940;BMP180;23057;48.554;14.454;2023-10-19T10:15:57;92195.00;;;19.70
41940;BMP180;23057;48.554;14.454;2023-10-19T10:18:33;92192.00;;;19.80
41940;BMP180;23057;48.554;14.454;2023-10-19T10:21:14;92183.00;;;19.80
41940;BMP180;23057;48.554;14.454;2023-10-19T10:26:31;92184.00;;;19.90
41940;BMP180;23057;48.554;14.454;2023-10-19T10:29:28;92181.00;;;20.00
41940;BMP180;23057;48.554;14.454;2023-10-19T10:32:01;92179.00;;;20.10
41940;BMP180;23057;48.554;14.454;2023-10-19T10:37:13;92170.00;;;20.20
41940;BMP180;23057;48.554;14.454;2023-10-19T10:39:44;92172.00;;;20.20
41940;BMP180;23057;48.554;14.454;2023-10-19T10:42:16;92169.00;;;20.30
41940;BMP180;23057;48.554;14.454;2023-10-19T10:44:48;92158.00;;;20.40
41940;BMP180;23057;48.554;14.454;2023-10-19T10:47:23;92165.00;;;20.40
41940;BMP180;23057;48.554;14.454;2023-10-19T10:50:01;92161.00;;;20.40
41940;BMP180;23057;48.554;14.454;2023-10-19T10:52:34;92159.00;;;20.40
41940;BMP180;23057;48.554;14.454;2023-10-19T10:55:12;92151.00;;;20.40
41940;BMP180;23057;48.554;14.454;2023-10-19T10:57:44;92147.00;;;20.30
41940;BMP180;23057;48.554;14.454;2023-10-19T11:00:15;92141.00;;;20.30
41940;BMP180;23057;48.554;14.454;2023-10-19T11:02:59;92136.00;;;20.40
41940;BMP180;23057;48.554;14.454;2023-10-19T11:05:31;92139.00;;;20.40
41940;BMP180;23057;48.554;14.454;2023-10-19T11:08:11;92138.00;;;20.40
41940;BMP180;23057;48.554;14.454;2023-10-19T11:10:52;92138.00;;;20.40
41940;BMP180;23057;48.554;14.454;2023-10-19T11:13:24;92122.00;;;20.40
41940;BMP180;23057;48.554;14.454;2023-10-19T11:15:59;92122.00;;;20.40
41940;BMP180;23057;48.554;14.454;2023-10-19T11:18:37;92129.00;;;20.40
41940;BMP180;23057;48.554;14.454;2023-10-19T11:21:16;92121.00;;;20.40
41940;BMP180;23057;48.554;14.454;2023-10-19T11:23:49;92117.00;;;20.40
41940;BMP180;23057;48.554;14.454;2023-10-19T11:26:24;92103.00;;;20.50
41940;BMP180;23057;48.554;14.454;2023-10-19T11:29:02;92100.00;;;20.50
41940;BMP180;23057;48.554;14.454;2023-10-19T11:31:40;92093.00;;;20.50
41940;BMP180;23057;48.554;14.454;2023-10-19T11:34:12;92089.00;;;20.50
41940;BMP180;23057;48.554;14.454;2023-10-19T11:36:53;92087.00;;;20.40
41940;BMP180;23057;48.554;14.454;2023-10-19T11:39:27;92077.00;;;20.40
41940;BMP180;23057;48.554;14.454;2023-10-19T11:41:59;92077.00;;;20.40
41940;BMP180;23057;48.554;14.454;2023-10-19T11:44:30;92071.00;;;20.40
41940;BMP180;23057;48.554;14.454;2023-10-19T11:47:01;92079.00;;;20.50
41940;BMP180;23057;48.554;14.454;2023-10-19T11:49:32;92079.00;;;20.60
41940;BMP180;23057;48.554;14.454;2023-10-19T11:52:07;92083.00;;;20.60
41940;BMP180;23057;48.554;14.454;2023-10-19T11:54:38;92071.00;;;20.60
41940;BMP180;23057;48.554;14.454;2023-10-19T11:57:09;92071.00;;;20.60
41940;BMP180;23057;48.554;14.454;2023-10-19T11:59:40;92073.00;;;20.70
41940;BMP180;23057;48.554;14.454;2023-10-19T12:02:11;92070.00;;;20.70
41940;BMP180;23057;48.554;14.454;2023-10-19T12:04:42;92064.00;;;20.70
41940;BMP180;23057;48.554;14.454;2023-10-19T12:07:13;92058.00;;;20.70
41940;BMP180;23057;48.554;14.454;2023-10-19T12:09:44;92060.00;;;20.80
41940;BMP180;23057;48.554;14.454;2023-10-19T12:12:15;92056.00;;;20.80
41940;BMP180;23057;48.554;14.454;2023-10-19T12:14:46;92054.00;;;20.90
41940;BMP180;23057;48.554;14.454;2023-10-19T12:17:17;92060.00;;;20.90
41940;BMP180;23057;48.554;14.454;2023-10-19T12:19:48;92061.00;;;21.00
41940;BMP180;23057;48.554;14.454;2023-10-19T12:22:19;92062.00;;;21.00
41940;BMP180;23057;48.554;14.454;2023-10-19T12:24:51;92073.00;;;21.00
41940;BMP180;23057;48.554;14.454;2023-10-19T12:27:22;92075.00;;;20.90
41940;BMP180;23057;48.554;14.454;2023-10-19T12:29:55;92082.00;;;20.90
41940;BMP180;23057;48.554;14.454;2023-10-19T12:32:26;92081.00;;;20.90
41940;BMP180;23057;48.554;14.454;2023-10-19T12:34:56;92077.00;;;20.80
41940;BMP180;23057;48.554;14.454;2023-10-19T12:37:28;92079.00;;;20.80
41940;BMP180;23057;48.554;14.454;2023-10-19T12:39:58;92077.00;;;20.90
41940;BMP180;23057;48.554;14.454;2023-10-19T12:42:30;92079.00;;;20.80
41940;BMP180;23057;48.554;14.454;2023-10-19T12:45:01;92076.00;;;20.80
41940;BMP180;23057;48.554;14.454;2023-10-19T12:47:32;92069.00;;;20.80
41940;BMP180;23057;48.554;14.454;2023-10-19T12:50:03;92065.00;;;20.90
41940;BMP180;23057;48.554;14.454;2023-10-19T12:52:34;92062.00;;;20.90
41940;BMP180;23057;48.554;14.454;2023-10-19T12:55:08;92064.00;;;20.90
41940;BMP180;23057;48.554;14.454;2023-10-19T12:57:39;92065.00;;;21.00
41940;BMP180;23057;48.554;14.454;2023-10-19T13:00:11;92061.00;;;21.00
41940;BMP180;23057;48.554;14.454;2023-10-19T13:02:57;92073.00;;;21.00
41940;BMP180;23057;48.554;14.454;2023-10-19T13:05:37;92068.00;;;21.00
41940;BMP180;23057;48.554;14.454;2023-10-19T13:08:10;92077.00;;;21.00
41940;BMP180;23057;48.554;14.454;2023-10-19T13:10:46;92063.00;;;21.00
41940;BMP180;23057;48.554;14.454;2023-10-19T13:13:19;92061.00;;;21.10
41940;BMP180;23057;48.554;14.454;2023-10-19T13:15:53;92064.00;;;21.20
41940;BMP180;23057;48.554;14.454;2023-10-19T13:18:24;92043.00;;;21.30
41940;BMP180;23057;48.554;14.454;2023-10-19T13:21:01;92041.00;;;21.40
41940;BMP180;23057;48.554;14.454;2023-10-19T13:23:35;92042.00;;;21.50
41940;BMP180;23057;48.554;14.454;2023-10-19T13:26:06;92028.00;;;21.50
41940;BMP180;23057;48.554;14.454;2023-10-19T13:28:47;92030.00;;;21.60
41940;BMP180;23057;48.554;14.454;2023-10-19T13:31:19;92024.00;;;21.50
41940;BMP180;23057;48.554;14.454;2023-10-19T13:33:52;92030.00;;;21.60
41940;BMP180;23057;48.554;14.454;2023-10-19T13:36:25;92036.00;;;21.60
41940;BMP180;23057;48.554;14.454;2023-10-19T13:38:56;92028.00;;;21.70
41940;BMP180;23057;48.554;14.454;2023-10-19T13:41:26;92038.00;;;21.70
41940;BMP180;23057;48.554;14.454;2023-10-19T13:43:57;92022.00;;;21.80
41940;BMP180;23057;48.554;14.454;2023-10-19T13:46:28;92018.00;;;21.80
41940;BMP180;23057;48.554;14.454;2023-10-19T13:48:59;92019.00;;;21.90
41940;BMP180;23057;48.554;14.454;2023-10-19T13:51:33;92008.00;;;22.00
41940;BMP180;23057;48.554;14.454;2023-10-19T13:54:05;92007.00;;;22.10
41940;BMP180;23057;48.554;14.454;2023-10-19T13:56:36;92004.00;;;22.10
41940;BMP180;23057;48.554;14.454;2023-10-19T13:59:07;92014.00;;;22.30
41940;BMP180;23057;48.554;14.454;2023-10-19T14:01:38;92011.00;;;22.40
41940;BMP180;23057;48.554;14.454;2023-10-19T14:04:09;91992.00;;;22.50
41940;BMP180;23057;48.554;14.454;2023-10-19T14:06:39;91991.00;;;22.50
41940;BMP180;23057;48.554;14.454;2023-10-19T14:09:10;91981.00;;;22.50
41940;BMP180;23057;48.554;14.454;2023-10-19T14:11:43;91977.00;;;22.50
41940;BMP180;23057;48.554;14.454;2023-10-19T14:14:17;91979.00;;;22.50
41940;BMP180;23057;48.554;14.454;2023-10-19T14:16:48;91959.00;;;22.60
41940;BMP180;23057;48.554;14.454;2023-10-19T14:19:20;91966.00;;;22.60
41940;BMP180;23057;48.554;14.454;2023-10-19T14:21:51;91975.00;;;22.70
41940;BMP180;23057;48.554;14.454;2023-10-19T14:24:23;91966.00;;;22.80
41940;BMP180;23057;48.554;14.454;2023-10-19T14:26:54;91956.00;;;22.80
41940;BMP180;23057;48.554;14.454;2023-10-19T14:29:25;91969.00;;;22.90
41940;BMP180;23057;48.554;14.454;2023-10-19T14:31:56;91966.00;;;22.90
41940;BMP180;23057;48.554;14.454;2023-10-19T14:34:27;91970.00;;;22.90
41940;BMP180;23057;48.554;14.454;2023-10-19T14:36:58;91973.00;;;22.90
41940;BMP180;23057;48.554;14.454;2023-10-19T14:39:28;91973.00;;;22.90
41940;BMP180;23057;48.554;14.454;2023-10-19T14:41:59;91967.00;;;22.90
41940;BMP180;23057;48.554;14.454;2023-10-19T14:44:31;91964.00;;;22.80